Time;durP1;ratioP1;P1;durP2;ratioP2;P2;SDS_P1;SDS_P2;PMS_P1;PMS_P2;Temp;Humidity;BMP_temperature;BMP_pressure;BME280_temperature;BME280_humidity;BME280_pressure;Samples;Min_cycle;Max_cycle;Signal;HPM_P1;HPM_P2
2022/10/31 00:00:41;;;;;;;8.33;4.70;;;;;;;12.39;nan;99941.31;4949630;28;20185;-77
2022/10/31 00:03:06;;;;;;;6.00;4.50;;;;;;;12.38;nan;99937.84;4951031;28;20200;-76
2022/10/31 00:05:32;;;;;;;7.30;4.57;;;;;;;12.37;nan;99943.22;4949733;28;20507;-76
2022/10/31 00:07:57;;;;;;;7.53;5.37;;;;;;;12.35;nan;99939.84;4952691;28;20200;-77
2022/10/31 00:10:23;;;;;;;8.63;5.07;;;;;;;12.31;nan;99940.97;4949891;28;20213;-76
2022/10/31 00:12:48;;;;;;;8.57;4.77;;;;;;;12.27;nan;99937.72;4952083;28;20203;-76
2022/10/31 00:15:14;;;;;;;7.60;5.33;;;;;;;12.29;nan;99940.25;4951934;28;20192;-77
2022/10/31 00:17:39;;;;;;;6.70;4.60;;;;;;;12.30;nan;99931.41;4950379;28;20193;-76
2022/10/31 00:20:05;;;;;;;9.27;5.10;;;;;;;12.32;nan;99940.91;4950598;28;20220;-76
2022/10/31 00:22:30;;;;;;;8.47;6.20;;;;;;;12.33;nan;99944.38;4950192;28;20717;-77
2022/10/31 00:24:56;;;;;;;8.20;5.77;;;;;;;12.34;nan;99944.28;4949975;28;20452;-79
2022/10/31 00:27:21;;;;;;;10.47;4.83;;;;;;;12.35;nan;99937.22;4951061;28;20207;-79
2022/10/31 00:29:46;;;;;;;8.23;4.60;;;;;;;12.30;nan;99942.78;4952207;28;20659;-79
2022/10/31 00:32:12;;;;;;;3.60;3.10;;;;;;;12.24;nan;99937.91;4951876;28;20220;-78
2022/10/31 00:34:37;;;;;;;7.10;4.23;;;;;;;12.16;nan;99941.03;4951348;28;20309;-78
2022/10/31 00:37:03;;;;;;;6.15;3.20;;;;;;;12.08;nan;99938.06;4950535;28;20229;-78
2022/10/31 00:39:29;;;;;;;4.30;3.60;;;;;;;12.01;nan;99939.38;4951025;28;20323;-78
2022/10/31 00:41:54;;;;;;;5.90;3.57;;;;;;;11.94;nan;99933.69;4952139;28;20193;-78
2022/10/31 00:44:20;;;;;;;5.70;3.83;;;;;;;11.89;nan;99930.50;4935113;28;20193;-79
2022/10/31 00:46:45;;;;;;;6.00;3.60;;;;;;;11.89;nan;99924.41;4951858;28;20208;-79
2022/10/31 00:49:12;;;;;;;5.50;4.20;;;;;;;11.89;nan;99929.66;4950796;28;20689;-78
2022/10/31 00:51:37;;;;;;;4.50;3.75;;;;;;;11.90;nan;99933.97;4951024;28;20223;-79
2022/10/31 00:54:03;;;;;;;10.10;3.90;;;;;;;11.89;nan;99927.88;4951522;28;20665;-78
2022/10/31 00:56:28;;;;;;;7.83;4.17;;;;;;;11.89;nan;99925.25;4933476;28;20184;-78
2022/10/31 00:58:54;;;;;;;6.53;4.30;;;;;;;11.91;nan;99930.41;4930223;28;20624;-79
2022/10/31 01:01:20;;;;;;;5.70;3.63;;;;;;;11.91;nan;99930.41;4930819;28;20188;-78
2022/10/31 01:03:45;;;;;;;8.07;5.10;;;;;;;11.89;nan;99927.88;4946696;28;20807;-79
2022/10/31 01:06:13;;;;;;;4.05;3.60;;;;;;;11.91;nan;99925.16;4938363;28;20212;-79
2022/10/31 01:08:39;;;;;;;4.97;4.40;;;;;;;11.92;nan;99924.19;4955974;28;20239;-79
2022/10/31 01:11:09;;;;;;;6.18;4.13;;;;;;;11.91;nan;99919.88;4947395;28;20205;-79
2022/10/31 01:13:35;;;;;;;5.82;4.38;;;;;;;11.91;nan;99925.16;4953186;28;20264;-79
2022/10/31 01:16:04;;;;;;;8.50;4.50;;;;;;;11.90;nan;99923.44;4955868;28;20180;-79
2022/10/31 01:18:31;;;;;;;5.85;4.88;;;;;;;11.89;nan;99922.59;4959124;28;20197;-79
2022/10/31 01:21:05;;;;;;;9.70;4.73;;;;;;;11.90;nan;99918.19;4955425;28;20233;-79
2022/10/31 01:23:31;;;;;;;5.50;4.05;;;;;;;11.89;nan;99927.03;4954995;28;20496;-79
2022/10/31 01:26:09;;;;;;;6.93;4.28;;;;;;;11.87;nan;99921.84;4940742;28;20200;-79
2022/10/31 01:28:37;;;;;;;6.68;4.10;;;;;;;11.86;nan;99917.53;4940975;28;20267;-79
2022/10/31 01:31:06;;;;;;;6.18;4.03;;;;;;;11.85;nan;99913.16;4936850;28;20212;-79
2022/10/31 01:33:34;;;;;;;6.65;4.68;;;;;;;11.83;nan;99916.88;4939231;28;20555;-79
2022/10/31 01:35:59;;;;;;;5.53;4.28;;;;;;;11.80;nan;99917.03;4956096;28;20193;-79
2022/10/31 01:38:25;;;;;;;10.23;3.90;;;;;;;11.76;nan;99920.81;4954227;28;20188;-79
2022/10/31 01:40:51;;;;;;;6.57;4.33;;;;;;;11.73;nan;99917.44;4954611;28;20236;-78
2022/10/31 01:43:17;;;;;;;5.03;3.47;;;;;;;11.73;nan;99912.19;4953370;28;20428;-79
2022/10/31 01:45:49;;;;;;;5.70;4.18;;;;;;;11.74;nan;99924.38;4956932;28;20178;-79
2022/10/31 01:48:19;;;;;;;3.97;3.45;;;;;;;11.74;nan;99920.91;4939353;28;20192;-76
2022/10/31 01:50:48;;;;;;;4.32;3.65;;;;;;;11.70;nan;99920.28;4955434;28;20223;-78
2022/10/31 01:53:16;;;;;;;3.72;3.42;;;;;;;11.69;nan;99915.97;4955574;28;20236;-78
2022/10/31 01:55:44;;;;;;;4.40;3.97;;;;;;;11.69;nan;99909.81;4952175;28;20185;-79
2022/10/31 01:58:19;;;;;;;3.80;3.10;;;;;;;11.68;nan;99911.63;4939195;28;20665;-79
2022/10/31 02:00:49;;;;;;;3.60;3.25;;;;;;;11.69;nan;99910.69;4935571;28;20653;-76
2022/10/31 02:03:15;;;;;;;4.03;3.63;;;;;;;11.68;nan;99909.00;4955238;28;20199;-78
2022/10/31 02:05:42;;;;;;;3.92;3.42;;;;;;;11.63;nan;99895.28;4937458;28;20189;-79
2022/10/31 02:08:16;;;;;;;4.15;3.75;;;;;;;11.59;nan;99906.94;4953633;28;20251;-79
2022/10/31 02:10:43;;;;;;;4.45;3.97;;;;;;;11.59;nan;99906.13;4957634;28;20212;-78
2022/10/31 02:13:10;;;;;;;4.07;3.63;;;;;;;11.57;nan;99903.56;4932521;28;20615;-79
2022/10/31 02:15:45;;;;;;;6.35;3.70;;;;;;;11.59;nan;99899.06;4936487;28;20279;-79
2022/10/31 02:18:10;;;;;;;4.78;3.35;;;;;;;11.59;nan;99899.06;4943421;28;20192;-78
2022/10/31 02:20:57;;;;;;;4.37;3.97;;;;;;;11.60;nan;99899.91;4937170;28;20655;-79
2022/10/31 02:23:34;;;;;;;3.65;3.28;;;;;;;11.59;nan;99899.06;4952706;28;20263;-79
2022/10/31 02:26:22;;;;;;;4.80;4.15;;;;;;;11.60;nan;99907.78;4938359;28;20205;-79
2022/10/31 02:29:09;;;;;;;5.00;4.07;;;;;;;11.58;nan;99905.25;4945408;28;20295;-79
2022/10/31 02:32:07;;;;;;;4.57;3.97;;;;;;;11.56;nan;99901.00;4945227;28;20271;-78
2022/10/31 02:34:56;;;;;;;3.50;3.20;;;;;;;11.56;nan;99888.72;4916180;28;20256;-79
2022/10/31 02:37:25;;;;;;;3.58;3.28;;;;;;;11.58;nan;99896.50;4948382;28;20188;-79
2022/10/31 02:40:12;;;;;;;5.78;3.67;;;;;;;11.55;nan;99894.91;4941617;28;20220;-78
2022/10/31 02:43:21;;;;;;;3.20;2.63;;;;;;;11.50;nan;99889.09;4949619;28;20205;-79
2022/10/31 02:46:05;;;;;;;4.18;3.10;;;;;;;11.45;nan;99886.78;4943771;28;20181;-79
2022/10/31 02:48:37;;;;;;;4.50;3.70;;;;;;;11.42;nan;99897.50;4938037;28;21012;-78
2022/10/31 02:51:05;;;;;;;5.75;5.35;;;;;;;11.37;nan;99889.03;4957912;28;20208;-78
2022/10/31 02:53:35;;;;;;;3.63;3.00;;;;;;;11.34;nan;99891.88;4957242;28;20780;-79
2022/10/31 02:56:06;;;;;;;3.65;3.28;;;;;;;11.34;nan;99891.00;4939651;28;20603;-79
2022/10/31 02:58:37;;;;;;;4.90;4.05;;;;;;;11.34;nan;99891.88;4942122;28;20198;-79
2022/10/31 03:01:28;;;;;;;5.82;4.18;;;;;;;11.35;nan;99890.91;4957596;28;20184;-79
2022/10/31 03:04:12;;;;;;;5.95;5.25;;;;;;;11.35;nan;99883.03;4938836;28;20184;-78
2022/10/31 03:06:40;;;;;;;6.50;4.13;;;;;;;11.35;nan;99879.56;4939133;28;20197;-79
2022/10/31 03:09:26;;;;;;;4.75;2.70;;;;;;;11.30;nan;99883.31;4955262;28;20725;-78
2022/10/31 03:12:17;;;;;;;5.15;3.03;;;;;;;11.23;nan;99879.38;4954241;28;20201;-79
2022/10/31 03:14:52;;;;;;;3.80;2.80;;;;;;;11.18;nan;99873.56;4938908;28;20281;-79
2022/10/31 03:17:26;;;;;;;3.70;2.80;;;;;;;11.16;nan;99880.69;4941047;28;20184;-78
2022/10/31 03:19:56;;;;;;;5.00;3.38;;;;;;;11.16;nan;99878.06;4940296;28;20214;-79
2022/10/31 03:22:25;;;;;;;3.15;2.80;;;;;;;11.18;nan;99884.09;4957610;28;20235;-79
2022/10/31 03:24:52;;;;;;;4.45;3.33;;;;;;;11.18;nan;99878.81;4955372;28;20427;-78
2022/10/31 03:27:25;;;;;;;3.10;2.80;;;;;;;11.19;nan;99875.25;4939124;28;20367;-78
2022/10/31 03:29:57;;;;;;;4.47;3.42;;;;;;;11.17;nan;99874.47;4936980;28;20211;-78
2022/10/31 03:32:31;;;;;;;4.95;2.92;;;;;;;11.16;nan;99870.19;4934397;28;20184;-78
2022/10/31 03:35:00;;;;;;;4.40;2.63;;;;;;;11.18;nan;99870.06;4952659;28;20188;-78
2022/10/31 03:37:32;;;;;;;4.22;3.83;;;;;;;11.18;nan;99863.03;4937448;28;20657;-78
2022/10/31 03:40:00;;;;;;;4.63;3.30;;;;;;;11.21;nan;99868.09;4932976;28;20221;-79
2022/10/31 03:42:30;;;;;;;5.40;3.83;;;;;;;11.22;nan;99869.78;4940500;28;20185;-79
2022/10/31 03:45:00;;;;;;;3.92;3.15;;;;;;;11.24;nan;99870.53;4941610;28;20208;-78
2022/10/31 03:47:26;;;;;;;3.67;2.88;;;;;;;11.25;nan;99866.13;4937618;28;20628;-78
2022/10/31 03:49:53;;;;;;;3.00;2.80;;;;;;;11.26;nan;99868.69;4931646;28;20292;-78
2022/10/31 03:52:44;;;;;;;3.67;3.08;;;;;;;11.29;nan;99871.09;4931711;28;20589;-78
2022/10/31 03:55:48;;;;;;;5.50;3.47;;;;;;;11.32;nan;99863.97;4932428;28;20235;-79
2022/10/31 03:58:24;;;;;;;3.55;2.70;;;;;;;11.33;nan;99868.28;4909477;28;20248;-78
2022/10/31 04:00:52;;;;;;;3.60;3.30;;;;;;;11.34;nan;99862.06;4951862;28;20181;-78
2022/10/31 04:03:23;;;;;;;4.13;3.08;;;;;;;11.35;nan;99863.78;4952487;28;20448;-78
2022/10/31 04:05:54;;;;;;;14.85;3.70;;;;;;;11.37;nan;99861.88;4933867;28;20487;-78
2022/10/31 04:08:24;;;;;;;4.45;3.25;;;;;;;11.38;nan;99860.94;4950293;28;20235;-78
2022/10/31 04:10:52;;;;;;;3.58;2.63;;;;;;;11.36;nan;99858.41;4935435;28;20696;-78
2022/10/31 04:13:23;;;;;;;8.25;3.33;;;;;;;11.35;nan;99863.78;4951750;28;20712;-78
2022/10/31 04:15:57;;;;;;;4.78;3.03;;;;;;;11.33;nan;99861.22;4949545;28;20268;-78
2022/10/31 04:18:25;;;;;;;3.83;3.30;;;;;;;11.33;nan;99857.75;4949971;28;20822;-78
2022/10/31 04:21:02;;;;;;;6.47;3.22;;;;;;;11.33;nan;99860.41;4932592;28;20168;-78
2022/10/31 04:23:28;;;;;;;5.90;4.03;;;;;;;11.28;nan;99864.13;4952186;28;20216;-78
2022/10/31 04:25:54;;;;;;;6.68;2.67;;;;;;;11.20;nan;99861.16;4932412;28;20288;-79
2022/10/31 04:28:19;;;;;;;5.40;3.27;;;;;;;11.15;nan;99863.25;4933486;28;20732;-78
2022/10/31 04:30:45;;;;;;;6.37;3.63;;;;;;;11.14;nan;99868.59;4949421;28;20207;-79
2022/10/31 04:33:10;;;;;;;4.73;3.77;;;;;;;11.13;nan;99859.00;4932185;28;20741;-78
2022/10/31 04:35:36;;;;;;;5.05;3.20;;;;;;;11.13;nan;99854.59;4933521;28;20223;-78
2022/10/31 04:38:02;;;;;;;4.53;3.27;;;;;;;11.14;nan;99865.94;4956375;28;20192;-78
2022/10/31 04:40:28;;;;;;;3.40;2.60;;;;;;;11.14;nan;99863.31;4938072;28;20312;-78
2022/10/31 04:42:54;;;;;;;5.93;3.33;;;;;;;11.12;nan;99852.06;4958142;28;20205;-78
2022/10/31 04:45:19;;;;;;;5.67;3.43;;;;;;;11.07;nan;99854.94;4935144;28;20185;-79
2022/10/31 04:47:47;;;;;;;5.38;3.75;;;;;;;11.03;nan;99858.72;4961952;28;20482;-78
2022/10/31 04:50:13;;;;;;;6.00;3.70;;;;;;;11.01;nan;99857.97;4940281;28;20251;-78
2022/10/31 04:52:43;;;;;;;7.93;3.30;;;;;;;11.02;nan;99863.16;4940324;28;20232;-78
2022/10/31 04:55:11;;;;;;;8.02;4.80;;;;;;;11.04;nan;99868.28;4939862;28;20600;-78
2022/10/31 04:57:55;;;;;;;4.40;3.47;;;;;;;11.02;nan;99859.69;4958219;28;20199;-78
2022/10/31 05:00:23;;;;;;;7.18;2.70;;;;;;;10.98;nan;99855.53;4941085;28;20254;-78
2022/10/31 05:02:52;;;;;;;4.93;3.08;;;;;;;10.94;nan;99859.31;4950356;28;20185;-78
2022/10/31 05:05:19;;;;;;;5.10;3.30;;;;;;;10.91;nan;99857.72;4939578;28;20189;-78
2022/10/31 05:07:46;;;;;;;3.50;3.20;;;;;;;10.86;nan;99859.75;4939422;28;20749;-78
2022/10/31 05:10:20;;;;;;;7.88;4.40;;;;;;;10.84;nan;99862.47;4956754;28;20200;-78
2022/10/31 05:12:53;;;;;;;4.10;3.55;;;;;;;10.83;nan;99860.78;4939893;28;20173;-78
2022/10/31 05:15:38;;;;;;;4.78;3.38;;;;;;;10.86;nan;99862.41;4956284;28;20208;-78
2022/10/31 05:18:26;;;;;;;4.40;2.70;;;;;;;10.87;nan;99857.97;4948840;28;20251;-78
2022/10/31 05:21:30;;;;;;;5.30;3.55;;;;;;;10.83;nan;99857.31;4937340;28;20581;-78
2022/10/31 05:24:01;;;;;;;5.45;4.20;;;;;;;10.82;nan;99853.84;4938854;28;21113;-78
2022/10/31 05:26:27;;;;;;;11.75;3.25;;;;;;;10.83;nan;99852.91;4940394;28;20192;-78
2022/10/31 05:28:53;;;;;;;3.85;3.05;;;;;;;10.88;nan;99857.03;4940010;28;20208;-78
2022/10/31 05:31:19;;;;;;;8.97;4.20;;;;;;;10.89;nan;99862.19;4956684;28;20207;-78
2022/10/31 05:33:44;;;;;;;4.50;3.23;;;;;;;10.89;nan;99859.56;4936479;28;20192;-78
2022/10/31 05:36:19;;;;;;;6.55;3.58;;;;;;;10.88;nan;99857.88;4955492;28;20188;-78
2022/10/31 05:38:51;;;;;;;8.32;4.07;;;;;;;10.84;nan;99859.84;5024490;23;20212;-78
2022/10/31 05:41:24;;;;;;;9.02;3.33;;;;;;;10.82;nan;99858.25;4950698;28;20197;-76
2022/10/31 05:43:51;;;;;;;6.38;3.92;;;;;;;10.79;nan;99854.03;4929059;28;20196;-78
2022/10/31 05:46:21;;;;;;;5.15;3.25;;;;;;;10.81;nan;99856.56;4935394;28;20185;-78
2022/10/31 05:49:05;;;;;;;4.80;3.42;;;;;;;10.79;nan;99845.31;4948811;28;20252;-77
2022/10/31 05:51:30;;;;;;;9.17;3.73;;;;;;;10.80;nan;99853.09;4945560;28;20239;-77
2022/10/31 05:53:56;;;;;;;6.07;3.23;;;;;;;10.81;nan;99852.16;4954326;28;20527;-76
2022/10/31 05:56:22;;;;;;;4.30;3.10;;;;;;;10.82;nan;99851.19;4959446;28;20177;-76
2022/10/31 05:58:48;;;;;;;7.93;4.18;;;;;;;10.83;nan;99854.69;4950780;28;20181;-76
2022/10/31 06:01:14;;;;;;;6.30;4.30;;;;;;;10.83;nan;99858.16;4975309;28;20181;-76
2022/10/31 06:03:39;;;;;;;6.67;4.20;;;;;;;10.82;nan;99863.50;4948401;28;20185;-77
2022/10/31 06:06:07;;;;;;;9.55;3.78;;;;;;;10.81;nan;99854.78;4964592;28;20213;-76
2022/10/31 06:08:42;;;;;;;3.50;2.90;;;;;;;10.84;nan;99857.22;4971686;28;20247;-79
2022/10/31 06:11:14;;;;;;;8.40;4.18;;;;;;;10.87;nan;99853.56;4959620;28;20203;-78
2022/10/31 06:14:05;;;;;;;6.72;2.92;;;;;;;10.83;nan;99849.44;4952058;28;20204;-78
2022/10/31 06:16:39;;;;;;;4.18;2.97;;;;;;;10.83;nan;99852.06;4956403;28;20185;-76
2022/10/31 06:19:27;;;;;;;8.05;3.03;;;;;;;10.83;nan;99847.66;4946684;28;20708;-77
2022/10/31 06:21:52;;;;;;;9.10;3.43;;;;;;;10.83;nan;99852.06;4949912;28;20181;-78
2022/10/31 06:24:18;;;;;;;7.30;3.37;;;;;;;10.80;nan;99853.09;4623319;28;5001526;-78
2022/10/31 06:26:59;;;;;;;5.53;3.22;;;;;;;10.82;nan;99843.31;4966098;28;20193;-77
2022/10/31 06:29:24;;;;;;;7.43;3.33;;;;;;;10.86;nan;99851.88;4946019;28;20868;-78
2022/10/31 06:32:05;;;;;;;4.15;3.17;;;;;;;10.86;nan;99851.88;4955993;28;20456;-78
2022/10/31 06:34:35;;;;;;;4.65;3.55;;;;;;;10.88;nan;99857.03;4970806;28;20220;-79
2022/10/31 06:37:01;;;;;;;6.00;3.37;;;;;;;10.91;nan;99851.56;4947962;28;20550;-77
2022/10/31 06:39:28;;;;;;;4.65;3.50;;;;;;;10.96;nan;99857.41;4951605;28;20228;-77
2022/10/31 06:41:53;;;;;;;6.63;3.90;;;;;;;11.00;nan;99856.28;4947810;28;20926;-77
2022/10/31 06:44:20;;;;;;;4.65;3.15;;;;;;;11.05;nan;99857.69;4950684;28;20172;-78
2022/10/31 06:47:08;;;;;;;19.92;4.97;;;;;;;11.13;nan;99851.13;4945360;28;20200;-78
2022/10/31 06:49:52;;;;;;;7.25;4.93;;;;;;;11.18;nan;99855.16;4948164;28;20197;-77
2022/10/31 06:52:23;;;;;;;6.60;4.38;;;;;;;11.21;nan;99857.59;4962376;28;20192;-78
2022/10/31 06:54:49;;;;;;;14.27;4.80;;;;;;;11.23;nan;99847.84;4963945;28;20180;-79
2022/10/31 06:57:14;;;;;;;21.13;5.30;;;;;;;11.26;nan;99846.78;4958497;28;20185;-77
2022/10/31 06:59:41;;;;;;;9.60;4.00;;;;;;;11.29;nan;99851.88;4962912;28;20205;-79
2022/10/31 07:02:28;;;;;;;5.90;3.30;;;;;;;11.36;nan;99852.31;4957462;28;20205;-77
2022/10/31 07:04:55;;;;;;;7.68;3.78;;;;;;;11.44;nan;99847.41;4972113;28;20207;-79
2022/10/31 07:07:21;;;;;;;6.45;3.85;;;;;;;11.50;nan;99854.91;4965841;28;20311;-77
2022/10/31 07:09:47;;;;;;;8.27;4.30;;;;;;;11.57;nan;99853.56;4952751;28;20300;-78
2022/10/31 07:12:16;;;;;;;5.95;3.45;;;;;;;11.61;nan;99855.09;4960667;28;20196;-78
2022/10/31 07:14:48;;;;;;;9.73;3.30;;;;;;;11.65;nan;99856.56;4942885;28;20208;-77
2022/10/31 07:17:13;;;;;;;10.20;4.17;;;;;;;11.68;nan;99859.00;4957301;28;20181;-77
2022/10/31 07:19:42;;;;;;;12.93;4.90;;;;;;;11.72;nan;99857.88;4965063;28;20205;-77
2022/10/31 07:22:09;;;;;;;26.20;5.80;;;;;;;11.81;nan;99860.84;4955638;28;20177;-78
2022/10/31 07:24:35;;;;;;;12.43;4.30;;;;;;;11.90;nan;99860.28;4962032;28;20675;-79
2022/10/31 07:27:24;;;;;;;10.95;4.75;;;;;;;11.99;nan;99869.34;4928502;28;20205;-79
2022/10/31 07:29:50;;;;;;;20.30;7.20;;;;;;;12.07;nan;99864.44;4957495;28;20202;-79
2022/10/31 07:32:15;;;;;;;15.27;6.40;;;;;;;12.17;nan;99866.34;4954234;28;20212;-77
2022/10/31 07:34:47;;;;;;;19.08;8.18;;;;;;;12.29;nan;99877.88;4952325;28;20451;-78
2022/10/31 07:37:15;;;;;;;15.20;5.65;;;;;;;12.38;nan;99881.69;4940411;28;20606;-78
2022/10/31 07:39:41;;;;;;;14.17;6.80;;;;;;;12.48;nan;99877.50;4950556;28;20551;-79
2022/10/31 07:42:06;;;;;;;29.47;8.40;;;;;;;12.58;nan;99875.94;4943239;28;20184;-77
2022/10/31 07:44:32;;;;;;;49.50;12.35;;;;;;;12.69;nan;99871.69;4954239;28;20181;-79
2022/10/31 07:47:16;;;;;;;18.92;6.55;;;;;;;12.76;nan;99872.97;4941312;28;20203;-78
2022/10/31 07:50:05;;;;;;;5.85;5.20;;;;;;;12.87;nan;99866.97;4940176;28;20223;-77
2022/10/31 07:53:00;;;;;;;5.22;4.25;;;;;;;12.97;nan;99875.94;4943410;28;20198;-77
2022/10/31 07:55:42;;;;;;;17.98;7.53;;;;;;;13.09;nan;99874.22;4953920;28;20749;-77
2022/10/31 07:58:14;;;;;;;6.00;3.95;;;;;;;13.19;nan;99872.66;4955102;28;20181;-78
2022/10/31 08:00:42;;;;;;;6.50;4.40;;;;;;;13.30;nan;99875.41;4945132;28;20209;-78
2022/10/31 08:03:13;;;;;;;5.72;4.30;;;;;;;13.40;nan;99876.44;4949288;28;20188;-78
2022/10/31 08:05:59;;;;;;;25.92;9.00;;;;;;;13.50;nan;99874.84;4936369;28;20602;-77
2022/10/31 08:08:43;;;;;;;9.15;5.65;;;;;;;13.61;nan;99876.72;4949746;28;20739;-77
2022/10/31 08:11:09;;;;;;;7.47;4.33;;;;;;;13.72;nan;99873.28;4955932;28;20212;-77
2022/10/31 08:13:34;;;;;;;11.53;4.80;;;;;;;13.81;nan;99880.53;4940284;28;20197;-77
2022/10/31 08:16:03;;;;;;;10.43;5.53;;;;;;;13.92;nan;99885.03;4961267;28;20181;-79
2022/10/31 08:18:30;;;;;;;8.27;4.53;;;;;;;14.02;nan;99877.28;4967178;28;20184;-77
2022/10/31 08:20:56;;;;;;;8.32;6.75;;;;;;;14.13;nan;99875.53;4954108;28;20169;-78
2022/10/31 08:23:22;;;;;;;7.90;4.70;;;;;;;14.24;nan;99873.91;4942235;28;20608;-77
2022/10/31 08:25:48;;;;;;;10.70;5.30;;;;;;;14.37;nan;99872.84;4956375;28;20192;-78
2022/10/31 08:28:14;;;;;;;18.50;6.97;;;;;;;14.52;nan;99867.38;4941878;28;20231;-77
2022/10/31 08:30:41;;;;;;;6.82;4.85;;;;;;;14.68;nan;99870.56;4948625;28;20204;-77
2022/10/31 08:33:25;;;;;;;8.27;4.97;;;;;;;14.83;nan;99864.09;4943620;28;20235;-77
2022/10/31 08:36:09;;;;;;;9.27;5.55;;;;;;;14.97;nan;99864.84;4939471;28;20340;-78
2022/10/31 08:38:49;;;;;;;10.40;5.50;;;;;;;15.04;nan;99855.44;4949889;28;20236;-77
2022/10/31 08:41:16;;;;;;;7.47;5.50;;;;;;;15.08;nan;99854.25;4943860;28;20987;-77
2022/10/31 08:43:41;;;;;;;4.73;4.33;;;;;;;15.09;nan;99847.97;4943002;28;20185;-78
2022/10/31 08:46:07;;;;;;;10.97;4.67;;;;;;;15.10;nan;99849.69;4957600;28;20197;-77
2022/10/31 08:48:32;;;;;;;7.00;4.37;;;;;;;15.12;nan;99847.78;4956706;28;20716;-78
2022/10/31 08:50:59;;;;;;;8.00;5.47;;;;;;;15.17;nan;99848.22;4960627;28;20232;-78
2022/10/31 08:53:27;;;;;;;9.85;5.20;;;;;;;15.20;nan;99845.34;4960010;28;20181;-77
2022/10/31 08:56:07;;;;;;;7.05;5.07;;;;;;;15.22;nan;99838.13;4956449;28;20676;-78
2022/10/31 08:58:34;;;;;;;7.30;5.57;;;;;;;15.29;nan;99835.00;4944079;28;20253;-77
2022/10/31 09:01:01;;;;;;;6.63;5.50;;;;;;;15.36;nan;99838.81;4948593;28;20187;-78
2022/10/31 09:03:28;;;;;;;13.00;6.43;;;;;;;15.47;nan;99828.22;4964422;28;20185;-77
2022/10/31 09:05:56;;;;;;;26.98;11.88;;;;;;;15.56;nan;99826.66;4962601;28;20213;-79
2022/10/31 09:08:22;;;;;;;40.85;14.38;;;;;;;15.61;nan;99820.03;4954023;28;20193;-79
2022/10/31 09:10:48;;;;;;;37.00;21.57;;;;;;;15.66;nan;99825.78;4945000;28;20457;-77
2022/10/31 09:13:20;;;;;;;48.38;25.30;;;;;;;15.74;nan;99817.22;4961602;28;20447;-77
2022/10/31 09:16:04;;;;;;;43.80;26.85;;;;;;;15.81;nan;99821.06;4943400;28;20748;-77
2022/10/31 09:18:31;;;;;;;54.80;33.80;;;;;;;15.91;nan;99814.03;4965896;28;20592;-77
2022/10/31 09:20:59;;;;;;;49.40;33.90;;;;;;;16.07;nan;99807.47;4942543;28;20204;-77
2022/10/31 09:23:26;;;;;;;48.70;33.30;;;;;;;16.23;nan;99801.72;4947418;28;20240;-77
2022/10/31 09:25:53;;;;;;;49.93;32.47;;;;;;;16.38;nan;99798.59;4963078;28;20331;-78
2022/10/31 09:28:36;;;;;;;59.33;36.70;;;;;;;16.48;nan;99787.25;4953129;28;20438;-78
2022/10/31 09:31:06;;;;;;;28.77;19.20;;;;;;;16.57;nan;99781.13;4964522;28;20263;-77
2022/10/31 09:33:52;;;;;;;39.22;20.85;;;;;;;16.64;nan;99784.13;4944653;28;20207;-77
2022/10/31 09:36:40;;;;;;;24.45;14.65;;;;;;;16.69;nan;99788.06;4945039;28;20197;-78
2022/10/31 09:39:25;;;;;;;15.10;8.43;;;;;;;16.72;nan;99802.88;4944860;28;20231;-78
2022/10/31 09:42:39;;;;;;;50.03;28.92;;;;;;;16.74;nan;99800.91;4949397;28;20173;-79
2022/10/31 09:45:21;;;;;;;34.65;24.63;;;;;;;16.72;nan;99798.41;4944632;28;20196;-78
2022/10/31 09:48:09;;;;;;;36.40;23.75;;;;;;;16.60;nan;99800.28;4950046;28;20756;-78
2022/10/31 09:50:48;;;;;;;21.25;14.18;;;;;;;16.48;nan;99790.72;4946771;28;20705;-78
2022/10/31 09:53:53;;;;;;;19.63;12.23;;;;;;;16.46;nan;99803.28;4932151;28;20259;-77
2022/10/31 09:56:23;;;;;;;12.45;9.65;;;;;;;16.49;nan;99799.53;4960117;28;20192;-77
2022/10/31 09:59:00;;;;;;;9.48;8.45;;;;;;;16.49;nan;99791.56;4944863;28;21664;-78
2022/10/31 10:01:47;;;;;;;11.45;8.25;;;;;;;16.43;nan;99792.94;4960031;28;20577;-77
2022/10/31 10:04:44;;;;;;;11.63;8.57;;;;;;;16.45;nan;99801.59;4940770;28;20606;-77
2022/10/31 10:07:39;;;;;;;10.00;8.68;;;;;;;16.48;nan;99789.91;4960007;28;20228;-77
2022/10/31 10:10:52;;;;;;;15.50;9.05;;;;;;;16.51;nan;99782.50;4944955;28;20224;-77
2022/10/31 10:13:34;;;;;;;10.95;7.90;;;;;;;16.58;nan;99791.63;4889557;28;20200;-77
2022/10/31 10:16:00;;;;;;;16.88;9.25;;;;;;;16.67;nan;99786.50;4943483;28;20786;-77
2022/10/31 10:18:44;;;;;;;17.10;9.20;;;;;;;16.74;nan;99782.31;4944691;28;20193;-78
2022/10/31 10:21:39;;;;;;;11.15;8.77;;;;;;;16.79;nan;99778.34;4941464;28;20768;-78
2022/10/31 10:24:23;;;;;;;10.90;7.70;;;;;;;16.87;nan;99782.16;4955477;28;20575;-78
2022/10/31 10:27:34;;;;;;;12.52;8.85;;;;;;;16.92;nan;99783.41;4946768;28;20303;-78
2022/10/31 10:30:17;;;;;;;8.82;7.70;;;;;;;17.00;nan;99783.59;4909706;28;20260;-77
2022/10/31 10:33:05;;;;;;;14.45;8.45;;;;;;;17.03;nan;99780.66;4946972;28;20231;-78
2022/10/31 10:35:39;;;;;;;12.57;8.63;;;;;;;17.08;nan;99782.09;4937136;28;20206;-78
2022/10/31 10:38:15;;;;;;;13.30;8.13;;;;;;;17.10;nan;99782.81;4944113;28;20266;-79
2022/10/31 10:40:42;;;;;;;13.90;8.90;;;;;;;17.13;nan;99777.22;4948828;28;20252;-78
2022/10/31 10:43:24;;;;;;;10.45;7.97;;;;;;;17.11;nan;99785.31;4932292;28;20254;-78
2022/10/31 10:49:33;;;;;;;8.60;7.80;;;;;;;17.07;nan;99794.53;4927889;28;20587;-78
2022/10/31 10:52:15;;;;;;;14.18;8.73;;;;;;;17.07;nan;99796.34;4948989;28;20216;-78
2022/10/31 10:55:19;;;;;;;13.73;8.98;;;;;;;17.03;nan;99790.44;4941134;28;20193;-78
2022/10/31 10:58:00;;;;;;;14.40;8.77;;;;;;;17.02;nan;99778.16;4943537;28;20562;-78
2022/10/31 11:00:34;;;;;;;15.60;8.68;;;;;;;17.03;nan;99775.34;4943581;28;20730;-78
2022/10/31 11:02:59;;;;;;;17.45;9.30;;;;;;;17.01;nan;99776.47;4943540;28;20209;-78
2022/10/31 11:05:36;;;;;;;13.43;9.20;;;;;;;17.02;nan;99778.16;4948350;28;20193;-78
2022/10/31 11:08:03;;;;;;;11.52;9.05;;;;;;;17.00;nan;99775.63;4949345;28;20566;-78
2022/10/31 11:10:29;;;;;;;12.18;7.50;;;;;;;17.01;nan;99772.03;4941961;28;20225;-78
2022/10/31 11:13:27;;;;;;;12.77;8.90;;;;;;;17.07;nan;99765.31;4941355;28;20216;-79
2022/10/31 11:16:00;;;;;;;16.55;9.65;;;;;;;17.09;nan;99749.25;4931899;28;20672;-78
2022/10/31 11:18:29;;;;;;;13.73;8.27;;;;;;;17.09;nan;99742.13;4942749;28;20198;-77
2022/10/31 11:20:57;;;;;;;10.30;9.20;;;;;;;17.09;nan;99730.66;4940776;28;20213;-78
2022/10/31 11:23:24;;;;;;;15.85;10.18;;;;;;;17.11;nan;99728.72;4944404;28;20195;-79
2022/10/31 11:25:54;;;;;;;31.77;14.18;;;;;;;17.18;nan;99729.88;4942052;28;20236;-76
2022/10/31 11:28:20;;;;;;;24.90;13.95;;;;;;;17.29;nan;99736.88;4943118;28;20181;-73
2022/10/31 11:30:53;;;;;;;13.67;9.17;;;;;;;17.42;nan;99719.69;4941134;28;20765;-77
2022/10/31 11:33:44;;;;;;;11.43;7.78;;;;;;;17.53;nan;99710.75;4966296;28;20282;-77
2022/10/31 11:36:24;;;;;;;12.27;8.57;;;;;;;17.57;nan;99693.53;4945624;28;20479;-77
2022/10/31 11:38:51;;;;;;;9.88;8.35;;;;;;;17.67;nan;99696.22;4944806;28;20223;-78
2022/10/31 11:41:32;;;;;;;12.15;7.53;;;;;;;17.81;nan;99693.16;4966294;23;20219;-81
2022/10/31 11:44:02;;;;;;;8.90;6.40;;;;;;;18.04;nan;99687.53;4920967;29;20771;-84
2022/10/31 11:46:39;;;;;;;9.88;5.65;;;;;;;18.23;nan;99678.66;4933224;28;20431;-84
2022/10/31 11:49:15;;;;;;;11.05;6.55;;;;;;;18.26;nan;99681.84;4921709;29;20194;-82
2022/10/31 11:51:40;;;;;;;10.02;6.72;;;;;;;18.31;nan;99679.59;4932442;28;20220;-83
2022/10/31 11:54:18;;;;;;;11.80;7.77;;;;;;;18.40;nan;99675.22;4932218;28;20810;-81
2022/10/31 11:56:43;;;;;;;10.38;6.88;;;;;;;18.50;nan;99664.56;4932847;28;20486;-81
2022/10/31 11:59:20;;;;;;;11.07;7.20;;;;;;;18.60;nan;99641.38;4932812;28;20195;-81
2022/10/31 12:01:48;;;;;;;9.05;7.13;;;;;;;18.71;nan;99632.38;4931852;28;20216;-81
2022/10/31 12:04:14;;;;;;;14.40;8.23;;;;;;;18.77;nan;99627.34;4933362;28;20597;-83
2022/10/31 12:06:48;;;;;;;8.73;7.00;;;;;;;18.82;nan;99620.69;4916190;29;20432;-80
2022/10/31 12:09:24;;;;;;;8.02;6.10;;;;;;;18.88;nan;99617.47;4930739;28;20188;-82
2022/10/31 12:12:14;;;;;;;13.07;7.13;;;;;;;18.92;nan;99609.00;4929559;28;20223;-83
2022/10/31 12:14:45;;;;;;;7.20;6.50;;;;;;;18.94;nan;99611.53;4932039;28;20434;-84
2022/10/31 12:17:14;;;;;;;9.63;6.50;;;;;;;19.03;nan;99613.28;4934337;28;20440;-84